Time;durP1;ratioP1;P1;durP2;ratioP2;P2;SDS_P1;SDS_P2;PMS_P1;PMS_P2;Temp;Humidity;BMP_temperature;BMP_pressure;BME280_temperature;BME280_humidity;BME280_pressure;Samples;Min_cycle;Max_cycle;Signal;HPM_P1;HPM_P2
2024/04/24 00:00:42;;;;;;;22.50;15.03;;;;;;;;;;5494169;26;20226;-82
2024/04/24 00:03:10;;;;;;;23.03;15.63;;;;;;;;;;5494691;26;20230;-82
2024/04/24 00:05:42;;;;;;;24.43;15.47;;;;;;;;;;5493560;26;20269;-82
2024/04/24 00:08:11;;;;;;;24.17;16.00;;;;;;;;;;5494355;26;20223;-82
2024/04/24 00:10:40;;;;;;;23.57;15.03;;;;;;;;;;5494651;26;20262;-82
2024/04/24 00:13:08;;;;;;;24.63;16.00;;;;;;;;;;5494115;26;20226;-82
2024/04/24 00:15:37;;;;;;;24.63;15.70;;;;;;;;;;5494456;26;20219;-83
2024/04/24 00:18:06;;;;;;;26.97;16.13;;;;;;;;;;5494228;26;20928;-82
2024/04/24 00:20:35;;;;;;;26.40;16.30;;;;;;;;;;5494755;26;20257;-82
2024/04/24 00:23:07;;;;;;;27.27;16.63;;;;;;;;;;5493928;26;20222;-82
2024/04/24 00:25:35;;;;;;;25.07;15.80;;;;;;;;;;5494131;26;20218;-82
2024/04/24 00:28:04;;;;;;;25.73;16.17;;;;;;;;;;5494206;26;20222;-83
2024/04/24 00:30:33;;;;;;;24.67;15.57;;;;;;;;;;5493892;26;20567;-81
2024/04/24 00:32:59;;;;;;;26.07;16.87;;;;;;;;;;5493197;26;20222;-82
2024/04/24 00:35:28;;;;;;;27.17;17.07;;;;;;;;;;5494180;26;20222;-82
2024/04/24 00:37:57;;;;;;;28.70;17.23;;;;;;;;;;5494095;26;20222;-82
2024/04/24 00:40:29;;;;;;;27.87;18.07;;;;;;;;;;5493880;26;20221;-82
2024/04/24 00:42:57;;;;;;;29.60;18.37;;;;;;;;;;5493911;26;20261;-81
2024/04/24 00:45:26;;;;;;;28.13;18.00;;;;;;;;;;5493447;26;20601;-81
2024/04/24 00:47:55;;;;;;;31.20;18.77;;;;;;;;;;5493009;26;20568;-82
2024/04/24 00:50:25;;;;;;;31.17;19.67;;;;;;;;;;5493451;26;20551;-82
2024/04/24 00:52:54;;;;;;;30.70;19.13;;;;;;;;;;5493629;26;20284;-82
2024/04/24 00:55:22;;;;;;;29.63;18.50;;;;;;;;;;5493267;26;20715;-82
2024/04/24 00:57:55;;;;;;;30.07;18.17;;;;;;;;;;5493634;26;20222;-82
2024/04/24 01:00:23;;;;;;;25.37;17.27;;;;;;;;;;5493401;26;20707;-82
2024/04/24 01:02:52;;;;;;;29.83;17.97;;;;;;;;;;5492631;26;20797;-82
2024/04/24 01:05:21;;;;;;;28.63;18.13;;;;;;;;;;5493640;26;20223;-82
2024/04/24 01:07:50;;;;;;;28.23;17.90;;;;;;;;;;5489993;26;20951;-82
2024/04/24 01:10:19;;;;;;;31.57;17.07;;;;;;;;;;5489605;26;20266;-82
2024/04/24 01:12:48;;;;;;;28.43;17.73;;;;;;;;;;5489316;26;20230;-81
2024/04/24 01:15:20;;;;;;;26.80;17.00;;;;;;;;;;5488593;26;20234;-81
2024/04/24 01:17:50;;;;;;;26.67;16.93;;;;;;;;;;5488629;26;20374;-81
2024/04/24 01:20:21;;;;;;;26.20;16.67;;;;;;;;;;5488401;26;20222;-82
2024/04/24 01:22:56;;;;;;;28.70;16.80;;;;;;;;;;5489444;26;20226;-82
2024/04/24 01:25:29;;;;;;;27.90;17.07;;;;;;;;;;5489031;26;20257;-82
2024/04/24 01:28:01;;;;;;;27.80;17.03;;;;;;;;;;5488648;26;20774;-82
2024/04/24 01:30:30;;;;;;;31.00;17.73;;;;;;;;;;5489034;26;20273;-80
2024/04/24 01:32:59;;;;;;;25.73;17.10;;;;;;;;;;5488558;26;20223;-82
2024/04/24 01:35:27;;;;;;;18.03;11.73;;;;;;;;;;5489257;26;20227;-82
2024/04/24 01:37:56;;;;;;;16.77;12.67;;;;;;;;;;5488702;26;20269;-82
2024/04/24 01:40:22;;;;;;;17.40;12.53;;;;;;;;;;5489069;26;20233;-82
2024/04/24 01:42:51;;;;;;;15.80;12.10;;;;;;;;;;5489588;26;20237;-81
2024/04/24 01:45:20;;;;;;;17.60;12.00;;;;;;;;;;5488215;26;20230;-82
2024/04/24 01:47:49;;;;;;;16.63;11.97;;;;;;;;;;5489206;26;20228;-82
2024/04/24 01:50:18;;;;;;;17.40;11.90;;;;;;;;;;5488537;26;20223;-82
2024/04/24 01:52:47;;;;;;;17.63;12.10;;;;;;;;;;5481603;26;20283;-81
2024/04/24 01:55:16;;;;;;;19.10;12.50;;;;;;;;;;5469785;26;20344;-81
2024/04/24 01:57:44;;;;;;;18.10;12.40;;;;;;;;;;5451643;26;20281;-82
2024/04/24 02:00:14;;;;;;;18.87;12.90;;;;;;;;;;5451618;26;20226;-82
2024/04/24 02:02:45;;;;;;;21.37;12.70;;;;;;;;;;5451858;26;20269;-82
2024/04/24 02:05:14;;;;;;;21.00;13.30;;;;;;;;;;5452144;26;20226;-81
2024/04/24 02:07:43;;;;;;;22.33;13.10;;;;;;;;;;5451668;26;20226;-82
2024/04/24 02:10:12;;;;;;;21.70;13.63;;;;;;;;;;5451761;26;20229;-81
2024/04/24 02:12:40;;;;;;;21.97;13.73;;;;;;;;;;5451739;26;20252;-81
2024/04/24 02:15:10;;;;;;;20.37;13.20;;;;;;;;;;5481373;26;20279;-81
2024/04/24 02:17:38;;;;;;;23.00;14.13;;;;;;;;;;5488433;26;20681;-81
2024/04/24 02:20:10;;;;;;;25.17;15.27;;;;;;;;;;5487998;26;20701;-82
2024/04/24 02:22:39;;;;;;;29.73;16.87;;;;;;;;;;5487996;26;20225;-82
2024/04/24 02:27:53;;;;;;;32.17;17.93;;;;;;;;;;5490287;26;20824;-82
2024/04/24 02:30:22;;;;;;;33.10;18.23;;;;;;;;;;5458938;26;20236;-82
2024/04/24 02:32:50;;;;;;;31.47;18.10;;;;;;;;;;5452348;26;20227;-81
2024/04/24 02:35:20;;;;;;;38.43;18.23;;;;;;;;;;5451601;26;20275;-82
2024/04/24 02:37:49;;;;;;;43.80;19.70;;;;;;;;;;5451880;26;20235;-82
2024/04/24 02:40:18;;;;;;;36.77;19.23;;;;;;;;;;5451939;26;20271;-83
2024/04/24 02:42:47;;;;;;;43.93;18.17;;;;;;;;;;5522441;26;20632;-82
2024/04/24 02:45:16;;;;;;;50.30;19.63;;;;;;;;;;5524835;26;20222;-82
2024/04/24 02:47:44;;;;;;;46.17;18.37;;;;;;;;;;5525186;26;20261;-82
2024/04/24 02:50:13;;;;;;;46.93;18.83;;;;;;;;;;5524344;26;20745;-82
2024/04/24 02:52:45;;;;;;;39.80;19.00;;;;;;;;;;5525020;26;20219;-82
2024/04/24 02:55:14;;;;;;;50.43;18.17;;;;;;;;;;5524844;26;20374;-82
2024/04/24 02:57:40;;;;;;;43.17;18.43;;;;;;;;;;5534025;25;20233;-83
2024/04/24 03:00:09;;;;;;;33.73;18.20;;;;;;;;;;5562088;25;20269;-81
2024/04/24 03:02:38;;;;;;;47.70;19.03;;;;;;;;;;5561627;25;20760;-82
2024/04/24 03:05:07;;;;;;;43.07;18.57;;;;;;;;;;5561997;25;20290;-82
2024/04/24 03:07:36;;;;;;;33.13;18.10;;;;;;;;;;5562198;25;20217;-82
2024/04/24 03:10:08;;;;;;;49.33;18.50;;;;;;;;;;5561236;25;20217;-83
2024/04/24 03:12:37;;;;;;;32.23;17.00;;;;;;;;;;5561518;25;20271;-83
2024/04/24 03:15:07;;;;;;;28.07;16.43;;;;;;;;;;5532182;25;20272;-82
2024/04/24 03:17:36;;;;;;;35.13;17.73;;;;;;;;;;5523722;26;20217;-82
2024/04/24 03:20:05;;;;;;;33.63;17.00;;;;;;;;;;5549407;25;20820;-82
2024/04/24 03:22:33;;;;;;;33.60;16.57;;;;;;;;;;5561394;25;20264;-82
2024/04/24 03:25:02;;;;;;;27.20;16.67;;;;;;;;;;5562025;25;20225;-82
2024/04/24 03:27:35;;;;;;;27.73;16.27;;;;;;;;;;5561564;25;20272;-82
2024/04/24 03:30:04;;;;;;;31.53;17.93;;;;;;;;;;5560427;25;20260;-82
2024/04/24 03:32:33;;;;;;;33.10;17.03;;;;;;;;;;5562123;25;20225;-82
2024/04/24 03:35:02;;;;;;;30.90;16.87;;;;;;;;;;5561095;25;20267;-82
2024/04/24 03:37:31;;;;;;;29.30;16.60;;;;;;;;;;5537675;25;20942;-83
2024/04/24 03:40:00;;;;;;;28.23;16.70;;;;;;;;;;5524390;26;20256;-83
2024/04/24 03:42:29;;;;;;;28.20;16.20;;;;;;;;;;5524400;26;20237;-82
2024/04/24 03:45:00;;;;;;;26.43;15.83;;;;;;;;;;5523153;26;20222;-82
2024/04/24 03:47:29;;;;;;;28.87;16.90;;;;;;;;;;5523894;26;20222;-81
2024/04/24 03:49:58;;;;;;;26.93;16.13;;;;;;;;;;5524382;26;20264;-82
2024/04/24 03:52:27;;;;;;;29.93;17.03;;;;;;;;;;5523967;26;20222;-82
2024/04/24 03:54:56;;;;;;;24.53;15.37;;;;;;;;;;5524061;26;20222;-83
2024/04/24 03:57:24;;;;;;;26.83;16.07;;;;;;;;;;5523336;26;20584;-82
2024/04/24 03:59:53;;;;;;;25.33;14.60;;;;;;;;;;5523562;26;20549;-81
2024/04/24 04:02:25;;;;;;;26.23;15.97;;;;;;;;;;5525336;25;20766;-82
2024/04/24 04:04:54;;;;;;;27.80;16.40;;;;;;;;;;5561110;25;20224;-83
2024/04/24 04:07:22;;;;;;;26.00;15.60;;;;;;;;;;5560976;25;20601;-81
2024/04/24 04:09:51;;;;;;;25.73;15.60;;;;;;;;;;5561022;25;20221;-82
2024/04/24 04:12:20;;;;;;;25.13;15.43;;;;;;;;;;5560052;25;20263;-81
2024/04/24 04:14:49;;;;;;;27.57;16.83;;;;;;;;;;5536065;25;20272;-82
2024/04/24 04:17:18;;;;;;;26.57;15.90;;;;;;;;;;5524057;26;20219;-82
2024/04/24 04:19:49;;;;;;;25.93;15.77;;;;;;;;;;5523742;26;20225;-81
2024/04/24 04:22:18;;;;;;;26.83;16.67;;;;;;;;;;5485167;26;20227;-81
2024/04/24 04:24:47;;;;;;;26.13;16.40;;;;;;;;;;5485832;26;20265;-83
2024/04/24 04:27:15;;;;;;;26.87;16.20;;;;;;;;;;5486220;26;20219;-82
2024/04/24 04:29:44;;;;;;;28.13;16.93;;;;;;;;;;5486091;26;20270;-82
2024/04/24 04:32:13;;;;;;;27.63;16.80;;;;;;;;;;5486030;26;20622;-82
2024/04/24 04:34:44;;;;;;;24.73;15.47;;;;;;;;;;5486310;26;20269;-83
2024/04/24 04:37:16;;;;;;;27.50;16.47;;;;;;;;;;5485930;26;20227;-83
2024/04/24 04:39:45;;;;;;;27.37;17.10;;;;;;;;;;5485759;26;20223;-82
2024/04/24 04:42:13;;;;;;;25.90;16.33;;;;;;;;;;5459501;26;20248;-82
2024/04/24 04:44:42;;;;;;;24.90;16.37;;;;;;;;;;5466449;26;20235;-83
2024/04/24 04:47:11;;;;;;;26.90;15.50;;;;;;;;;;5489469;26;20224;-82
2024/04/24 04:49:40;;;;;;;28.50;17.30;;;;;;;;;;5489970;26;20254;-82
2024/04/24 04:52:09;;;;;;;25.67;15.93;;;;;;;;;;5489495;26;20249;-82
2024/04/24 04:54:40;;;;;;;26.97;17.07;;;;;;;;;;5488842;26;20223;-82
2024/04/24 04:57:09;;;;;;;28.37;16.37;;;;;;;;;;5489156;26;20258;-81
2024/04/24 04:59:38;;;;;;;24.80;16.00;;;;;;;;;;5490139;26;20219;-82
2024/04/24 05:02:07;;;;;;;26.57;16.33;;;;;;;;;;5488654;26;20570;-82
2024/04/24 05:04:36;;;;;;;24.93;15.20;;;;;;;;;;5489171;26;20274;-80
2024/04/24 05:07:05;;;;;;;27.83;16.27;;;;;;;;;;5489164;26;20262;-80
2024/04/24 05:09:35;;;;;;;25.17;16.43;;;;;;;;;;5489206;26;20254;-82
2024/04/24 05:12:06;;;;;;;23.97;15.90;;;;;;;;;;5489460;26;20708;-82
2024/04/24 05:14:36;;;;;;;28.97;17.53;;;;;;;;;;5468196;26;20232;-83
2024/04/24 05:17:04;;;;;;;30.70;18.50;;;;;;;;;;5452711;26;20275;-82
2024/04/24 05:19:33;;;;;;;30.93;17.50;;;;;;;;;;5452752;26;20231;-83
2024/04/24 05:22:02;;;;;;;30.27;17.87;;;;;;;;;;5453264;26;20230;-85
2024/04/24 05:24:31;;;;;;;26.50;17.03;;;;;;;;;;5453038;26;20224;-82
2024/04/24 05:29:47;;;;;;;23.30;15.23;;;;;;;;;;5456170;26;20270;-83
2024/04/24 05:32:16;;;;;;;23.97;15.43;;;;;;;;;;5452806;26;20225;-84
2024/04/24 05:34:45;;;;;;;27.07;16.40;;;;;;;;;;5452678;26;20269;-84
2024/04/24 05:37:15;;;;;;;26.03;15.73;;;;;;;;;;5453054;26;20224;-84
2024/04/24 05:39:43;;;;;;;26.23;16.07;;;;;;;;;;5453146;26;20354;-84
2024/04/24 05:42:12;;;;;;;24.63;15.07;;;;;;;;;;5479240;26;20235;-85
2024/04/24 05:44:42;;;;;;;25.87;15.77;;;;;;;;;;5489423;26;20304;-85
2024/04/24 05:47:14;;;;;;;22.43;15.47;;;;;;;;;;5502130;26;20735;-85
2024/04/24 05:49:43;;;;;;;22.90;14.93;;;;;;;;;;5490354;26;20283;-83
2024/04/24 05:52:11;;;;;;;23.47;15.17;;;;;;;;;;5525677;26;20222;-84
2024/04/24 05:54:41;;;;;;;22.27;14.77;;;;;;;;;;5525350;26;20758;-85
2024/04/24 05:57:10;;;;;;;22.73;15.07;;;;;;;;;;5526271;26;20266;-84
2024/04/24 05:59:39;;;;;;;22.00;14.43;;;;;;;;;;5518619;26;20276;-82
2024/04/24 06:02:08;;;;;;;25.87;15.07;;;;;;;;;;5493503;26;20262;-84
2024/04/24 06:04:39;;;;;;;23.47;15.43;;;;;;;;;;5504411;25;20722;-83
2024/04/24 06:07:06;;;;;;;23.20;15.33;;;;;;;;;;5495497;26;20222;-83
2024/04/24 06:09:35;;;;;;;25.07;15.47;;;;;;;;;;5514403;26;20230;-83
2024/04/24 06:12:05;;;;;;;23.63;15.43;;;;;;;;;;5515911;26;21076;-82
2024/04/24 06:14:33;;;;;;;24.20;14.83;;;;;;;;;;5507687;25;20232;-83
2024/04/24 06:17:02;;;;;;;24.40;15.87;;;;;;;;;;5518786;26;20838;-84
2024/04/24 06:19:31;;;;;;;23.40;14.93;;;;;;;;;;5524851;26;20221;-83
2024/04/24 06:22:03;;;;;;;21.97;14.93;;;;;;;;;;5524440;26;20222;-84
2024/04/24 06:24:31;;;;;;;23.73;15.53;;;;;;;;;;5525136;26;20228;-83
2024/04/24 06:27:00;;;;;;;25.57;16.20;;;;;;;;;;5525044;26;20351;-83
2024/04/24 06:29:29;;;;;;;26.20;16.73;;;;;;;;;;5494446;26;20301;-83
2024/04/24 06:31:58;;;;;;;22.63;15.27;;;;;;;;;;5490806;26;20557;-83
2024/04/24 06:34:27;;;;;;;25.00;15.83;;;;;;;;;;5524055;26;20230;-82
2024/04/24 06:36:56;;;;;;;23.63;15.50;;;;;;;;;;5523674;26;20785;-82
2024/04/24 06:39:28;;;;;;;21.77;14.70;;;;;;;;;;5524717;26;20276;-84
2024/04/24 06:41:57;;;;;;;21.47;15.17;;;;;;;;;;5502136;26;20785;-84
2024/04/24 06:44:25;;;;;;;19.50;14.13;;;;;;;;;;5487469;26;20257;-83
2024/04/24 06:46:56;;;;;;;23.83;14.67;;;;;;;;;;5487946;26;20219;-83
2024/04/24 06:49:22;;;;;;;21.83;14.20;;;;;;;;;;5468141;26;20225;-83
2024/04/24 06:51:51;;;;;;;22.50;14.70;;;;;;;;;;5486873;26;20231;-83
2024/04/24 06:54:20;;;;;;;18.67;13.40;;;;;;;;;;5487718;26;20276;-84
2024/04/24 06:56:53;;;;;;;20.07;13.03;;;;;;;;;;5487347;26;20219;-84
2024/04/24 06:59:21;;;;;;;21.87;13.47;;;;;;;;;;5487222;26;20234;-82
2024/04/24 07:01:50;;;;;;;21.53;14.33;;;;;;;;;;5487908;26;20226;-85
2024/04/24 07:04:19;;;;;;;19.50;13.43;;;;;;;;;;5486663;26;20258;-85
2024/04/24 07:06:48;;;;;;;19.67;13.20;;;;;;;;;;5485863;26;20223;-85
2024/04/24 07:09:17;;;;;;;19.10;12.90;;;;;;;;;;5487747;26;20226;-85
2024/04/24 07:11:46;;;;;;;20.07;12.73;;;;;;;;;;5487751;26;20222;-85
2024/04/24 07:14:17;;;;;;;18.80;12.63;;;;;;;;;;5468332;26;20232;-85
2024/04/24 07:16:46;;;;;;;20.17;12.93;;;;;;;;;;5470230;26;20231;-85
2024/04/24 07:19:15;;;;;;;21.27;13.37;;;;;;;;;;5486510;26;21064;-83
2024/04/24 07:21:44;;;;;;;17.93;12.30;;;;;;;;;;5486659;26;20239;-83
2024/04/24 07:24:12;;;;;;;20.63;12.70;;;;;;;;;;5485419;26;20262;-85
2024/04/24 07:26:44;;;;;;;18.07;12.23;;;;;;;;;;5487131;26;20708;-83
2024/04/24 07:29:12;;;;;;;19.37;13.10;;;;;;;;;;5487274;26;20227;-85
2024/04/24 07:31:44;;;;;;;20.47;12.27;;;;;;;;;;5476680;26;20751;-84
2024/04/24 07:34:13;;;;;;;18.17;11.67;;;;;;;;;;5450065;26;20262;-83
2024/04/24 07:36:42;;;;;;;19.07;12.03;;;;;;;;;;5450601;26;20882;-84
2024/04/24 07:39:11;;;;;;;16.90;10.87;;;;;;;;;;5450773;26;20266;-84
2024/04/24 07:41:40;;;;;;;15.90;10.70;;;;;;;;;;5492523;26;20275;-84
2024/04/24 07:44:10;;;;;;;17.97;10.33;;;;;;;;;;5490137;26;20227;-84
2024/04/24 07:46:39;;;;;;;15.90;10.63;;;;;;;;;;5487466;26;20223;-84
2024/04/24 07:49:10;;;;;;;16.07;11.50;;;;;;;;;;5485863;26;20250;-83
2024/04/24 07:51:39;;;;;;;17.50;10.63;;;;;;;;;;5486276;26;20230;-83
2024/04/24 07:54:08;;;;;;;19.13;11.57;;;;;;;;;;5486709;26;20223;-83
2024/04/24 07:56:37;;;;;;;16.33;10.60;;;;;;;;;;5487082;26;20227;-83
2024/04/24 07:59:06;;;;;;;15.70;10.30;;;;;;;;;;5486955;26;20223;-83
2024/04/24 08:01:35;;;;;;;15.23;9.93;;;;;;;;;;5509661;26;20280;-84
2024/04/24 08:04:03;;;;;;;18.03;10.73;;;;;;;;;;5522611;26;20264;-84
2024/04/24 08:06:35;;;;;;;17.07;9.87;;;;;;;;;;5522053;26;20222;-84
2024/04/24 08:09:04;;;;;;;16.33;10.50;;;;;;;;;;5479953;26;20219;-84
2024/04/24 08:11:33;;;;;;;15.53;10.27;;;;;;;;;;5485607;26;20282;-84
2024/04/24 08:14:03;;;;;;;16.23;10.00;;;;;;;;;;5486645;26;20231;-85
2024/04/24 08:16:31;;;;;;;14.90;9.27;;;;;;;;;;5485460;26;20231;-84
2024/04/24 08:19:00;;;;;;;14.90;9.20;;;;;;;;;;5490348;26;20323;-86
2024/04/24 08:21:29;;;;;;;15.13;9.10;;;;;;;;;;5489537;26;20331;-83
2024/04/24 08:24:01;;;;;;;17.37;9.97;;;;;;;;;;5489467;26;20274;-83
2024/04/24 08:26:29;;;;;;;13.47;8.37;;;;;;;;;;5489856;26;20555;-86
2024/04/24 08:28:58;;;;;;;13.53;8.27;;;;;;;;;;5489337;26;20223;-83
2024/04/24 08:31:27;;;;;;;13.00;8.10;;;;;;;;;;5487179;26;20298;-83
2024/04/24 08:33:56;;;;;;;11.53;6.83;;;;;;;;;;5489023;26;20230;-83
2024/04/24 08:36:25;;;;;;;13.70;7.73;;;;;;;;;;5483325;26;20231;-83
2024/04/24 08:38:54;;;;;;;11.57;7.37;;;;;;;;;;5488337;26;21468;-83
2024/04/24 08:41:23;;;;;;;11.87;7.37;;;;;;;;;;5487634;26;21054;-82
2024/04/24 08:43:54;;;;;;;14.07;7.37;;;;;;;;;;5488867;26;20774;-84
2024/04/24 08:46:23;;;;;;;11.07;6.03;;;;;;;;;;5481988;26;20227;-79
2024/04/24 08:48:51;;;;;;;13.33;6.83;;;;;;;;;;5483739;26;20223;-80
2024/04/24 08:51:21;;;;;;;10.50;5.90;;;;;;;;;;5470521;26;20267;-81
2024/04/24 08:53:55;;;;;;;10.03;6.07;;;;;;;;;;5451701;26;20578;-80
2024/04/24 08:56:29;;;;;;;12.13;6.13;;;;;;;;;;5461191;26;20228;-81
2024/04/24 08:58:59;;;;;;;10.83;6.30;;;;;;;;;;5482294;26;20723;-80
2024/04/24 09:01:29;;;;;;;8.63;6.03;;;;;;;;;;5482902;26;20274;-80
2024/04/24 09:04:01;;;;;;;11.17;6.00;;;;;;;;;;5482703;26;20274;-80
2024/04/24 09:06:31;;;;;;;13.30;6.43;;;;;;;;;;5491136;26;20231;-78
2024/04/24 09:09:00;;;;;;;12.70;6.43;;;;;;;;;;5487435;26;20277;-80
2024/04/24 09:11:31;;;;;;;11.13;5.87;;;;;;;;;;5487391;26;20232;-79
2024/04/24 09:14:01;;;;;;;10.20;6.20;;;;;;;;;;5485953;26;20266;-80
2024/04/24 09:16:30;;;;;;;11.37;6.33;;;;;;;;;;5500154;26;20226;-81
2024/04/24 09:19:03;;;;;;;13.13;7.60;;;;;;;;;;5513068;26;20234;-80
2024/04/24 09:21:32;;;;;;;10.20;5.67;;;;;;;;;;5505656;26;20229;-79
2024/04/24 09:24:01;;;;;;;10.20;6.07;;;;;;;;;;5513072;26;20277;-80
2024/04/24 09:26:33;;;;;;;11.73;6.23;;;;;;;;;;5509337;26;20234;-81
2024/04/24 09:29:02;;;;;;;12.07;5.37;;;;;;;;;;5512386;26;20590;-80
2024/04/24 09:31:30;;;;;;;8.20;4.90;;;;;;;;;;5511725;26;20843;-80
2024/04/24 09:33:59;;;;;;;11.00;5.67;;;;;;;;;;5512898;26;20273;-79
2024/04/24 09:36:31;;;;;;;11.20;5.40;;;;;;;;;;5508274;26;20273;-81
2024/04/24 09:39:00;;;;;;;11.67;5.07;;;;;;;;;;5504606;26;20227;-81
2024/04/24 09:41:29;;;;;;;11.03;5.53;;;;;;;;;;5498740;26;20277;-80
2024/04/24 09:44:01;;;;;;;11.67;5.97;;;;;;;;;;5519700;26;20230;-80
2024/04/24 09:46:31;;;;;;;12.00;5.20;;;;;;;;;;5521218;25;20234;-79
2024/04/24 09:48:59;;;;;;;8.87;5.43;;;;;;;;;;5510393;26;20230;-81
2024/04/24 09:51:28;;;;;;;10.30;5.10;;;;;;;;;;5520500;26;20238;-81
2024/04/24 09:53:57;;;;;;;10.27;5.50;;;;;;;;;;5523288;26;20238;-81
2024/04/24 09:56:27;;;;;;;10.40;5.10;;;;;;;;;;5518213;25;20234;-81
2024/04/24 09:58:58;;;;;;;10.53;6.10;;;;;;;;;;5510424;26;20272;-81
2024/04/24 10:01:30;;;;;;;10.53;5.20;;;;;;;;;;5509746;26;20226;-81
2024/04/24 10:04:00;;;;;;;8.93;5.23;;;;;;;;;;5522874;25;20276;-81
2024/04/24 10:06:30;;;;;;;13.43;5.67;;;;;;;;;;5530301;25;20230;-79
2024/04/24 10:09:01;;;;;;;9.37;4.97;;;;;;;;;;5517836;26;20234;-82
2024/04/24 10:11:31;;;;;;;8.87;4.50;;;;;;;;;;5503668;26;20264;-82
2024/04/24 10:14:01;;;;;;;10.17;6.00;;;;;;;;;;5503978;26;20238;-80
2024/04/24 10:16:33;;;;;;;13.67;9.53;;;;;;;;;;5498998;25;20246;-80
2024/04/24 10:19:02;;;;;;;11.40;6.43;;;;;;;;;;5494572;26;20736;-80
2024/04/24 10:21:32;;;;;;;11.23;6.47;;;;;;;;;;5499400;26;20738;-81
2024/04/24 10:24:02;;;;;;;11.05;6.03;;;;;;;;;;5499225;26;20262;-80
2024/04/24 10:26:31;;;;;;;9.55;6.30;;;;;;;;;;5522378;25;20246;-81
2024/04/24 10:29:00;;;;;;;11.85;6.38;;;;;;;;;;5521901;26;20226;-81
2024/04/24 10:31:30;;;;;;;9.85;6.22;;;;;;;;;;5523045;25;20242;-83
2024/04/24 10:34:02;;;;;;;10.20;6.15;;;;;;;;;;5513674;26;20369;-81
2024/04/24 10:36:31;;;;;;;12.57;6.13;;;;;;;;;;5512980;25;20277;-81
2024/04/24 10:39:00;;;;;;;9.98;5.70;;;;;;;;;;5519233;25;20892;-80
2024/04/24 10:41:29;;;;;;;11.65;5.30;;;;;;;;;;5533442;25;20238;-80
2024/04/24 10:43:59;;;;;;;9.07;5.00;;;;;;;;;;5516991;25;20797;-81
2024/04/24 10:46:28;;;;;;;8.07;5.68;;;;;;;;;;5540940;25;20777;-79
2024/04/24 10:48:58;;;;;;;8.80;5.07;;;;;;;;;;5557438;25;20283;-80
2024/04/24 10:51:36;;;;;;;10.82;5.57;;;;;;;;;;5557741;25;20286;-81
2024/04/24 10:54:15;;;;;;;8.20;5.38;;;;;;;;;;5558502;25;20221;-80
2024/04/24 10:56:45;;;;;;;10.15;6.75;;;;;;;;;;5560220;25;20233;-80
2024/04/24 10:59:14;;;;;;;10.52;6.00;;;;;;;;;;5561214;25;20339;-81
2024/04/24 11:01:45;;;;;;;7.55;4.82;;;;;;;;;;5550497;25;20242;-80
2024/04/24 11:04:15;;;;;;;11.13;6.07;;;;;;;;;;5524629;26;20821;-80
2024/04/24 11:06:47;;;;;;;10.63;4.72;;;;;;;;;;5524632;26;20626;-80
2024/04/24 11:09:16;;;;;;;7.60;4.53;;;;;;;;;;5523058;26;20242;-81
2024/04/24 11:11:45;;;;;;;11.55;5.35;;;;;;;;;;5500236;25;20585;-81
2024/04/24 11:14:14;;;;;;;9.38;6.32;;;;;;;;;;5502251;26;20230;-80
2024/04/24 11:16:43;;;;;;;11.63;6.25;;;;;;;;;;5523992;26;20222;-80
2024/04/24 11:19:12;;;;;;;10.55;7.00;;;;;;;;;;5522732;26;20242;-80
2024/04/24 11:21:41;;;;;;;10.10;6.80;;;;;;;;;;5524096;26;20218;-80
2024/04/24 11:24:13;;;;;;;11.88;7.47;;;;;;;;;;5523384;25;20221;-80
2024/04/24 11:26:41;;;;;;;14.05;7.97;;;;;;;;;;5523593;25;20221;-80
2024/04/24 11:29:11;;;;;;;14.70;8.60;;;;;;;;;;5519141;25;20962;-79
2024/04/24 11:31:41;;;;;;;17.40;9.15;;;;;;;;;;5519525;25;20316;-80
2024/04/24 11:34:10;;;;;;;11.80;8.63;;;;;;;;;;5529338;25;20580;-80
2024/04/24 11:36:40;;;;;;;12.25;9.00;;;;;;;;;;5546830;25;20280;-80
2024/04/24 11:39:09;;;;;;;13.93;9.65;;;;;;;;;;5522648;25;20750;-81
2024/04/24 11:41:40;;;;;;;13.60;9.93;;;;;;;;;;5512115;25;20292;-80
2024/04/24 11:44:09;;;;;;;13.23;11.18;;;;;;;;;;5537853;25;20241;-81
2024/04/24 11:46:39;;;;;;;14.97;11.17;;;;;;;;;;5528261;25;20977;-80
2024/04/24 11:49:08;;;;;;;15.40;11.55;;;;;;;;;;5507333;25;20235;-80
2024/04/24 11:51:38;;;;;;;15.55;11.98;;;;;;;;;;5515756;25;20239;-81
2024/04/24 11:54:07;;;;;;;18.73;11.80;;;;;;;;;;5522375;26;20264;-81
2024/04/24 11:56:40;;;;;;;18.03;11.53;;;;;;;;;;5534173;25;20237;-81
2024/04/24 11:59:14;;;;;;;15.13;10.97;;;;;;;;;;5549007;25;20222;-81
2024/04/24 12:01:43;;;;;;;17.43;12.90;;;;;;;;;;5486446;26;20218;-81
2024/04/24 12:04:12;;;;;;;15.70;11.27;;;;;;;;;;5489651;26;20270;-81
2024/04/24 12:06:42;;;;;;;17.50;11.73;;;;;;;;;;5519364;25;20954;-82
2024/04/24 12:09:11;;;;;;;16.43;11.43;;;;;;;;;;5522869;25;20226;-81
2024/04/24 12:11:42;;;;;;;15.17;10.97;;;;;;;;;;5509060;26;20234;-83
2024/04/24 12:14:15;;;;;;;15.53;11.00;;;;;;;;;;5525208;25;20238;-82
2024/04/24 12:16:41;;;;;;;15.10;11.93;;;;;;;;;;5521478;25;20276;-81
2024/04/24 12:19:10;;;;;;;16.33;11.87;;;;;;;;;;5536185;25;20230;-82
2024/04/24 12:21:39;;;;;;;14.57;11.53;;;;;;;;;;5522142;26;20234;-81
2024/04/24 12:24:08;;;;;;;15.27;10.73;;;;;;;;;;5533596;25;20226;-81
2024/04/24 12:26:36;;;;;;;13.10;9.47;;;;;;;;;;5520759;26;20238;-80
2024/04/24 12:29:05;;;;;;;14.53;10.80;;;;;;;;;;5514866;25;20266;-82
2024/04/24 12:31:37;;;;;;;13.83;10.07;;;;;;;;;;5523962;25;20234;-82
2024/04/24 12:34:06;;;;;;;13.97;9.17;;;;;;;;;;5501502;25;20266;-82
2024/04/24 12:36:36;;;;;;;13.07;8.87;;;;;;;;;;5501971;25;20230;-81
2024/04/24 12:39:06;;;;;;;14.20;9.40;;;;;;;;;;5521271;25;20288;-82
2024/04/24 12:41:36;;;;;;;12.87;9.40;;;;;;;;;;5502658;26;20261;-83
2024/04/24 12:44:05;;;;;;;13.13;9.23;;;;;;;;;;5507400;26;20727;-83
2024/04/24 12:46:34;;;;;;;13.97;8.60;;;;;;;;;;5482976;25;20230;-82
2024/04/24 12:49:05;;;;;;;11.80;8.73;;;;;;;;;;5493626;26;20619;-81
2024/04/24 12:51:35;;;;;;;15.53;8.80;;;;;;;;;;5506116;25;20617;-81
2024/04/24 12:54:02;;;;;;;13.63;8.63;;;;;;;;;;5508579;26;20269;-80
2024/04/24 12:56:30;;;;;;;11.10;8.17;;;;;;;;;;5522473;25;20318;-83
2024/04/24 12:58:59;;;;;;;10.23;7.93;;;;;;;;;;5494469;25;20282;-82
2024/04/24 13:01:28;;;;;;;13.20;8.27;;;;;;;;;;5502730;26;20272;-83
2024/04/24 13:03:58;;;;;;;12.30;7.97;;;;;;;;;;5511955;25;20278;-82
2024/04/24 13:06:30;;;;;;;11.97;7.97;;;;;;;;;;5520967;26;20238;-82
2024/04/24 13:08:59;;;;;;;11.57;7.70;;;;;;;;;;5524881;26;20615;-81
2024/04/24 13:11:28;;;;;;;14.83;8.20;;;;;;;;;;5524005;25;20226;-83
2024/04/24 13:13:57;;;;;;;12.30;8.20;;;;;;;;;;5500148;25;20230;-82
2024/04/24 13:16:26;;;;;;;11.43;7.90;;;;;;;;;;5510704;26;20224;-83
2024/04/24 13:18:55;;;;;;;12.67;7.67;;;;;;;;;;5505838;26;20577;-81
2024/04/24 13:21:24;;;;;;;12.67;7.80;;;;;;;;;;5524968;26;20230;-81
2024/04/24 13:23:55;;;;;;;11.60;7.43;;;;;;;;;;5505554;26;20272;-81
2024/04/24 13:26:25;;;;;;;10.50;7.77;;;;;;;;;;5518972;25;20242;-80
2024/04/24 13:28:54;;;;;;;9.97;7.40;;;;;;;;;;5510043;25;20230;-79
2024/04/24 13:31:23;;;;;;;9.57;6.93;;;;;;;;;;5507932;25;20653;-81
2024/04/24 13:33:52;;;;;;;12.23;8.23;;;;;;;;;;5508353;26;20290;-80
2024/04/24 13:36:21;;;;;;;10.87;8.20;;;;;;;;;;5524154;25;20273;-82
2024/04/24 13:38:50;;;;;;;10.67;7.43;;;;;;;;;;5518444;25;20334;-81
2024/04/24 13:41:22;;;;;;;11.43;9.50;;;;;;;;;;5510711;25;20317;-81
2024/04/24 13:43:52;;;;;;;9.13;7.10;;;;;;;;;;5517169;26;20277;-81
2024/04/24 13:46:21;;;;;;;11.17;7.37;;;;;;;;;;5504185;26;20230;-81
2024/04/24 13:48:50;;;;;;;13.57;7.70;;;;;;;;;;5531123;25;20229;-82
2024/04/24 13:51:19;;;;;;;14.00;7.97;;;;;;;;;;5521902;25;20265;-82
2024/04/24 13:53:48;;;;;;;11.13;7.90;;;;;;;;;;5535329;25;20273;-82
2024/04/24 13:56:17;;;;;;;15.40;7.93;;;;;;;;;;5515083;26;20281;-81
2024/04/24 13:58:49;;;;;;;12.30;7.23;;;;;;;;;;5499529;26;20231;-82
2024/04/24 14:01:17;;;;;;;10.20;7.60;;;;;;;;;;5483693;26;20726;-82
2024/04/24 14:03:46;;;;;;;10.00;7.50;;;;;;;;;;5511527;26;20230;-83
2024/04/24 14:06:15;;;;;;;12.50;6.97;;;;;;;;;;5505262;26;20276;-83
2024/04/24 14:08:45;;;;;;;9.90;6.67;;;;;;;;;;5534139;25;20230;-83
2024/04/24 14:11:14;;;;;;;13.40;7.37;;;;;;;;;;5534431;25;20273;-82
2024/04/24 14:13:43;;;;;;;11.07;7.63;;;;;;;;;;5524838;26;20261;-83
2024/04/24 14:16:16;;;;;;;12.20;7.30;;;;;;;;;;5520361;26;20381;-82
2024/04/24 14:18:45;;;;;;;10.23;6.70;;;;;;;;;;5513033;26;20231;-81
2024/04/24 14:21:17;;;;;;;27.43;21.43;;;;;;;;;;5507527;26;20292;-80
2024/04/24 14:23:46;;;;;;;44.53;24.00;;;;;;;;;;5520445;26;20287;-80
2024/04/24 14:26:16;;;;;;;37.27;21.20;;;;;;;;;;5532554;25;20238;-79
2024/04/24 14:28:45;;;;;;;22.53;16.33;;;;;;;;;;5536120;25;20226;-79
2024/04/24 14:31:14;;;;;;;36.27;32.50;;;;;;;;;;5511975;26;20242;-80
2024/04/24 14:33:43;;;;;;;15.17;10.70;;;;;;;;;;5524671;26;20240;-80
2024/04/24 14:36:12;;;;;;;9.63;7.00;;;;;;;;;;5524307;26;20238;-80
2024/04/24 14:38:42;;;;;;;15.17;9.30;;;;;;;;;;5494230;25;20239;-81
2024/04/24 14:41:12;;;;;;;10.77;7.27;;;;;;;;;;5561866;25;20233;-80